Hors Challenge

Le Jogging De Plancenoit (9.30 km)

dimanche 18 juillet 2021

Vous pouvez trouver Le classement original sur : www.goaltiming.be
 
LE JOGGING DE PLANCENOIT
DISTANCE : 9.28 km
dimanche 18 juillet 2021
 
Place Dos NOM Equipe Catégorie Pl/cat Temps Temps/km Vitesse
01:00:00                
1 209 MATTHYS ALEXIS TEAM M&M’S POWER H30-39 1 00:34:35 03:44 16.10
2 208 MOUREAU KEVIN TEAM M&M'S POWER H30-39 2 00:34:36 03:44 16.09
3 6398 DEMOULIN VINCENT COACHING ZONE TEAM H40-49 1 00:35:47 03:51 15.56
4 254 RATINCKX JEAN-PHILIPPE RIWA H30-39 3 00:35:55 03:52 15.50
5 6375 MENSARD BENOIT COACHING ZONE TEAM H30-39 4 00:36:13 03:54 15.37
6 6173 MONSIEUR MICHAEL - H40-49 2 00:36:59 03:59 15.06
7 6385 HSIA SEBASTIEN COACHING ZONE TEAM H40-49 3 00:37:33 04:03 14.83
8 247 DUPUIS CORENTIN TRAINING7-RIWA H40-49 4 00:38:06 04:06 14.61
9 262 CNOCQUART SEBASTIEN JTP BLANCS GILETS H40-49 5 00:38:16 04:07 14.55
10 1009 VANHORICK BRUNO - H40-49 6 00:39:10 04:13 14.22
11 6388 HUET BENJAMIN - H30-39 5 00:39:14 04:14 14.19
12 6171 PHILIPPOT CHARLES - H30-39 6 00:39:18 04:14 14.17
13 6401 GERMEAU NATHAN CZT H30-39 7 00:39:58 04:18 13.93
14 6382 PIERRE FREDERIC - H40-49 7 00:40:28 04:22 13.76
15 198 SLADE WILLIAM - H30-39 8 00:40:49 04:24 13.64
16 6386 HSIA HUGO COACHING ZONE TEAM H15-19 1 00:41:03 04:25 13.56
17 6403 CHRISTIAENS CHRIS COACHING ZONE TEAM H30-39 9 00:41:03 04:25 13.56
18 6394 VERBRUGGEN EDWIN - H30-39 10 00:41:08 04:26 13.54
19 6374 RENAUX ALEXANDRE COACHING ZONE TRIATH H30-39 11 00:42:24 04:34 13.13
20 340 ANDRE OLIVIER - H50-59 1 00:42:38 04:36 13.06
21 6399 QUINTELA DANIEL - H50-59 2 00:42:56 04:38 12.97
22 6405 FARBER NICOLAS - H50-59 3 00:43:10 04:39 12.90
23 6396 DELFOSSE CHRISTOPHE - H40-49 8 00:43:50 04:43 12.70
24 468 DEPOUILLE HENRI-FRANCOIS MYSTERE H40-49 9 00:43:53 04:44 12.69
25 6356 ROELANDTS SOPHIE COACHING ZONE TEAM F30-39 1 00:44:01 04:45 12.65
26 6376 VAN POUCKE CEDRIC - H30-39 12 00:44:48 04:50 12.43
27 1215 BERTRAND PHILIPPE ANTILOB HCM 1 00:44:55 04:50 12.40
28 558 JOUNDY OTHMAN COACHING ZONE H40-49 10 00:44:58 04:51 12.38
29 1218 LAUWENS NATHAN - H20-29 1 00:45:09 04:52 12.33
30 23 MINOT JEROME J.E.T TUBIZE H30-39 13 00:45:09 04:52 12.33
31 6384 GERMEAU FABIAN COACHING ZONE TEAM H30-39 14 00:45:20 04:53 12.28
32 281 PALATE FABIAN - H50-59 4 00:45:22 04:53 12.27
33 926 MEUNIER LOUIS WPRC H20-29 2 00:45:27 04:54 12.25
34 355 VAN POUCKE JOSE - H60-69 1 00:45:57 04:57 12.12
35 653 RANDALL CHRISTOPHER RUN4VILLERS H60-69 2 00:46:00 04:57 12.10
36 6172 MARTINO SANDRINE - F40-49 1 00:46:28 05:00 11.98
37 6373 GENIN STEPHANIE - F30-39 2 00:46:46 05:02 11.91
38 6408 VANDERSCHUEREN NICOLAS - H20-29 3 00:46:56 05:03 11.86
39 6391 SAGAERT DENIS - H50-59 5 00:47:05 05:04 11.83
40 1114 VANDERMOSTEN XAVIER RUN4VILLERS H50-59 6 00:47:38 05:08 11.69
41 6359 DUPONT KEVIN BIEN DANS TES BASKET H40-49 11 00:47:42 05:08 11.67
42 6362 LETELLIER JEAN LUC - H50-59 7 00:47:50 05:09 11.64
43 6381 BRANGER FREDERIC COACHING ZONE TEAM H40-49 12 00:47:54 05:10 11.62
44 6406 DIERICKX JOEL - H40-49 13 00:48:58 05:17 11.37
45 6380 DEMAERSCHALK CHARLES SWIFT RUNNING CLUB H20-29 4 00:49:22 05:19 11.28
46 757 COTTIN DENIS RUN4VILLERS H50-59 8 00:49:25 05:20 11.27
47 6383 DEMAERSCHALK JEROME - H30-39 15 00:49:26 05:20 11.26
48 913 BIDAINE LUC WPRC H60-69 3 00:49:57 05:23 11.15
49 6392 WANET DAMIEN RUN SOVIET RUN H30-39 16 00:49:57 05:23 11.15
50 6410 BIVER FRANCOIS - H20-29 5 00:49:58 05:23 11.14
51 6350 DEMAERSCHALK MICHEL - H50-59 9 00:50:08 05:24 11.11
52 124 VAN BAMIS CLAUDE - H60-69 4 00:50:21 05:26 11.06
53 6379 WILHELM BEN - H30-39 17 00:50:37 05:27 11.00
54 6397 BIVER ALAIN - H50-59 10 00:50:42 05:28 10.98
55 232 JANSSENS MICHELE JAMES F50-59 1 00:50:57 05:29 10.93
56 300 MAGOTTE OLIVIER JAMES H40-49 14 00:51:17 05:32 10.86
57 6393 BRACKE CHARLES WPRC H40-49 15 00:51:37 05:34 10.79
58 189 HEUNINCK ALEXANDRE - H30-39 18 00:51:47 05:35 10.75
59 201 DECAMP MARTINE JAMES F60-69 1 00:53:21 05:45 10.44
60 449 VAN BELLEGHEM ALAIN RUN TOGETHER CHESTRE H60-69 5 00:53:21 05:45 10.44
61 657 VANHALLE FRANCOIS-XAVIER RUN4VILLERS H40-49 16 00:53:36 05:47 10.39
62 6174 DE MEESTER ISABELLE - F60-69 2 00:54:42 05:54 10.18
63 1090 FUMIERE AURORE RUN TOGETHER CHASTRE F40-49 2 00:54:46 05:54 10.17
64 6182 STIENSMA ERIC - H60-69 6 00:54:53 05:55 10.15
65 6400 RASQUIN OLIVIER WPRC H40-49 17 00:54:54 05:55 10.14
66 6395 VANDEWYNCKEL SEBASTIEN - H50-59 11 00:56:06 06:03 9.92
67 46 DEMARET NATHALIE NAC NIVELLES F40-49 3 00:56:08 06:03 9.92
68 4 HERION ERIC JTP BLANCS GILETS H40-49 18 00:56:20 06:04 9.88
69 656 TIELEMANS PHILIPPE RUN4VILLERS H60-69 7 00:56:33 06:06 9.85
70 224 DEJONGHE JEAN-PAUL JAMES H70 & + 1 00:56:33 06:06 9.85
71 6404 ALI-KHODJA MICHEL - H50-59 12 00:56:57 06:08 9.78
72 6409 VANDERSCHUEREN ERIC - H50-59 13 00:57:01 06:09 9.77
73 579 HAYANI KHALFAOUI ABDER USBW H60-69 8 00:57:17 06:10 9.72
74 6180 CHARLES SOPHIE - F40-49 4 00:57:41 06:13 9.65
75 646 LACROIX FLORENCE JAMES F40-49 5 00:57:47 06:14 9.64
76 547 RIDSDALE-SAW JULIA USBW F60-69 3 00:58:26 06:18 9.53
77 6348 GIELEN GABRIEL - HCM 2 00:58:30 06:18 9.52
78 1143 GIELEN NICOLAS - H40-49 19 00:58:44 06:20 9.48
79 6347 GIELEN MAXENCE - HCM 3 00:58:44 06:20 9.48
80 453 PAULY GENE RUN TOGETHER CHASTRE F60-69 4 00:59:16 06:23 9.39
81 286 JONCKERS PITCH RUN TOGETHER CHASTRE H60-69 9 00:59:17 06:23 9.39
82 1089 HOUTART AURORE RUN TOGETHER CHASTRE F20-29 1 00:59:34 06:25 9.35
83 6367 VANWEYENBERG VALERIE JCPMF BRAINE-L’ALLEU F50-59 2 00:59:47 06:27 9.31
84 658 OST SANDRA USBW F40-49 6 00:59:51 06:27 9.30
85 1237 BOUCHAT DOMINIQUE JCPMF GENAPPE H40-49 20 01:00:23 06:30 9.22
86 441 FILLEE NATHALIE RUN TOGETHER CHASTRE F50-59 3 01:01:21 06:37 9.08
87 6366 DEFOIN AGNES - F40-49 7 01:01:41 06:39 9.03
88 115 BAIKRICH GUY RCB H70 & + 2 01:01:47 06:39 9.01
89 6351 ELLEBOUDT SEBASTIEN - H40-49 21 01:01:47 06:39 9.01
90 6372 VANDEN ABEELE CHRISTINE USBW F50-59 4 01:01:49 06:40 9.01
91 6371 VANDERSCHUEREN LINE - F15-19 1 01:01:57 06:41 8.99
92 929 MISKO PATRICK WPRC H60-69 10 01:02:05 06:41 8.97
93 927 MICCICHE FRANCESCO WPRC H40-49 22 01:02:11 06:42 8.95
94 6354 VAN ESCH CATHERINE USBW ROADTEAM F50-59 5 01:02:26 06:44 8.92
95 53 COOSEMANS ISABELLE J.E.T TUBIZE F40-49 8 01:03:32 06:51 8.76
96 6353 DETISTE VANESSA BIEN DANS TES BASKET F40-49 9 01:03:51 06:53 8.72
97 917 COLIN AMELIE WPRC F20-29 2 01:04:19 06:56 8.66
98 921 GILSON SOPHIE WPRC F40-49 10 01:04:50 06:59 8.59
99 24 THIBAUT THIERRY J.E.T. TUBIZE H50-59 14 01:04:54 07:00 8.58
100 6377 TJWA MARC - H40-49 23 01:05:26 07:03 8.51
101 6355 BOUBNAN ANISA COACHING ZONE TEAM F30-39 3 01:05:32 07:04 8.50
102 919 DE BOE ANNE WPRC F60-69 5 01:05:36 07:04 8.49
103 11 GROGNET SONIA JAMES F50-59 6 01:05:58 07:07 8.44
104 935 STIENSMA CATHERINE WPRC F50-59 7 01:07:31 07:17 8.25
105 6358 GUERIN MARTINE - F60-69 6 01:07:46 07:18 8.22
106 6357 CLINCKART CORINNE USBW F50-59 8 01:08:00 07:20 8.19
107 6389 RADELET ERIC USBW H50-59 15 01:08:00 07:20 8.19
108 6402 ELLEBOUDT MANUELLA - H40-49 24 01:08:40 07:24 8.11
109 6368 MENDOLIA ROSALBA - F40-49 11 01:08:44 07:24 8.10
110 1105 FLAMAND VALERIE AXA RUNNING TEAM F50-59 9 01:08:51 07:25 8.09
111 123 DENIS SABINE - F40-49 12 01:09:13 07:28 8.04
112 6363 VAN BOXMEER JOELLE - F50-59 10 01:09:20 07:28 8.03
113 6364 MUSIOL CHARLINE - F40-49 13 01:10:03 07:33 7.95
114 6361 WOLLAST AURELIE - F40-49 14 01:10:08 07:33 7.94
115 544 DE CUYPER ALAIN USBW H50-59 16 01:10:18 07:35 7.92
116 264 DOUTRELIGLE HERVÉ - H60-69 11 01:13:57 07:58 7.53
117 6 VANDEREYD ERIC JTP BLANCS GILETS H60-69 12 01:14:02 07:59 7.52
118 6183 VANSTEENKISTE NADINE - F50-59 11 01:14:22 08:01 7.49
119 6369 HERION SARAH - F15-19 2 01:14:45 08:03 7.45
120 6390 FRANCOIS ALBERT - H70 & + 3 01:15:30 08:08 7.37
121 1193 DEMILLECAMPS CLARA DOG'S LAND HCF 1 01:15:52 08:11 7.34
122 341 LEFEBVRE MARINE - F30-39 4 01:18:14 08:26 7.12
123 1192 DEMILLECAMPS EMMANUEL DOG'S LAND H50-59 17 01:20:51 08:43 6.89
124 1191 DECASTIAU MURIEL DOG'S LAND F40-49 15 01:20:51 08:43 6.89
125 117 FINE PAUL RCB H60-69 13 01:21:01 08:44 6.87
126 574 FETU THIERRY USBW ROAD TEAM H50-59 18 01:22:17 08:52 6.77
                 
Nos dernières videos